sensor_id;sensor_type;location;lat;lon;timestamp;temperature;humidity
73322;DHT22;61549;37.044;22.128;2022-12-01T00:01:38;16.80;71.50
73322;DHT22;61549;37.044;22.128;2022-12-01T00:04:04;16.70;71.60
73322;DHT22;61549;37.044;22.128;2022-12-01T00:06:30;16.70;71.80
73322;DHT22;61549;37.044;22.128;2022-12-01T00:08:56;16.80;71.80
73322;DHT22;61549;37.044;22.128;2022-12-01T00:11:40;16.80;71.70
73322;DHT22;61549;37.044;22.128;2022-12-01T00:14:06;16.80;71.80
73322;DHT22;61549;37.044;22.128;2022-12-01T00:16:32;16.80;71.90
73322;DHT22;61549;37.044;22.128;2022-12-01T00:18:58;16.80;71.80
73322;DHT22;61549;37.044;22.128;2022-12-01T00:21:25;16.80;71.90
73322;DHT22;61549;37.044;22.128;2022-12-01T00:23:53;16.70;71.60
73322;DHT22;61549;37.044;22.128;2022-12-01T00:26:20;16.80;71.60
73322;DHT22;61549;37.044;22.128;2022-12-01T00:28:54;16.80;71.60
73322;DHT22;61549;37.044;22.128;2022-12-01T00:31:20;16.80;71.50
73322;DHT22;61549;37.044;22.128;2022-12-01T00:33:46;16.70;71.40
73322;DHT22;61549;37.044;22.128;2022-12-01T00:36:12;16.70;71.50
73322;DHT22;61549;37.044;22.128;2022-12-01T00:38:38;16.70;71.60
73322;DHT22;61549;37.044;22.128;2022-12-01T00:41:04;16.80;71.80
73322;DHT22;61549;37.044;22.128;2022-12-01T00:43:30;16.70;72.00
73322;DHT22;61549;37.044;22.128;2022-12-01T00:49:55;16.80;72.20
73322;DHT22;61549;37.044;22.128;2022-12-01T00:55:43;16.80;72.20
73322;DHT22;61549;37.044;22.128;2022-12-01T01:01:30;16.80;71.90
73322;DHT22;61549;37.044;22.128;2022-12-01T01:07:17;16.80;71.90
73322;DHT22;61549;37.044;22.128;2022-12-01T01:22:14;16.70;73.00
73322;DHT22;61549;37.044;22.128;2022-12-01T01:28:02;16.70;73.30
73322;DHT22;61549;37.044;22.128;2022-12-01T01:33:49;16.70;73.20
73322;DHT22;61549;37.044;22.128;2022-12-01T01:36:28;16.70;73.70
73322;DHT22;61549;37.044;22.128;2022-12-01T01:39:15;16.80;73.20
73322;DHT22;61549;37.044;22.128;2022-12-01T01:45:24;16.80;73.20
73322;DHT22;61549;37.044;22.128;2022-12-01T01:48:12;16.80;73.20
73322;DHT22;61549;37.044;22.128;2022-12-01T01:53:41;16.70;73.10
73322;DHT22;61549;37.044;22.128;2022-12-01T01:57:12;16.70;73.20
73322;DHT22;61549;37.044;22.128;2022-12-01T02:00:37;16.80;73.00
73322;DHT22;61549;37.044;22.128;2022-12-01T02:03:29;16.80;73.10
73322;DHT22;61549;37.044;22.128;2022-12-01T02:09:17;16.70;73.20
73322;DHT22;61549;37.044;22.128;2022-12-01T02:34:42;16.70;74.30
73322;DHT22;61549;37.044;22.128;2022-12-01T02:48:52;15.90;76.90
73322;DHT22;61549;37.044;22.128;2022-12-01T02:52:32;16.10;75.90
73322;DHT22;61549;37.044;22.128;2022-12-01T02:58:21;16.30;75.50
73322;DHT22;61549;37.044;22.128;2022-12-01T03:20:06;16.50;75.40
73322;DHT22;61549;37.044;22.128;2022-12-01T03:29:25;16.50;75.50
73322;DHT22;61549;37.044;22.128;2022-12-01T03:35:01;16.50;75.50
73322;DHT22;61549;37.044;22.128;2022-12-01T03:41:15;16.60;75.50
73322;DHT22;61549;37.044;22.128;2022-12-01T03:47:11;16.60;75.60
73322;DHT22;61549;37.044;22.128;2022-12-01T03:59:45;16.70;75.10
73322;DHT22;61549;37.044;22.128;2022-12-01T04:05:34;16.70;74.60
73322;DHT22;61549;37.044;22.128;2022-12-01T04:11:21;16.60;74.40
73322;DHT22;61549;37.044;22.128;2022-12-01T04:21:42;16.50;73.70
73322;DHT22;61549;37.044;22.128;2022-12-01T04:27:31;16.40;73.30
73322;DHT22;61549;37.044;22.128;2022-12-01T04:33:19;16.30;72.80
73322;DHT22;61549;37.044;22.128;2022-12-01T04:39:07;16.30;72.30
73322;DHT22;61549;37.044;22.128;2022-12-01T04:44:54;16.30;72.20
73322;DHT22;61549;37.044;22.128;2022-12-01T04:50:42;16.20;71.50
73322;DHT22;61549;37.044;22.128;2022-12-01T04:56:30;16.20;71.70
73322;DHT22;61549;37.044;22.128;2022-12-01T05:02:18;16.10;71.80
73322;DHT22;61549;37.044;22.128;2022-12-01T05:08:09;16.10;72.20
73322;DHT22;61549;37.044;22.128;2022-12-01T05:13:57;16.10;72.00
73322;DHT22;61549;37.044;22.128;2022-12-01T05:21:08;16.10;72.30
73322;DHT22;61549;37.044;22.128;2022-12-01T05:26:56;16.10;73.20
73322;DHT22;61549;37.044;22.128;2022-12-01T05:29:42;16.10;73.40
73322;DHT22;61549;37.044;22.128;2022-12-01T05:32:22;16.10;73.30
73322;DHT22;61549;37.044;22.128;2022-12-01T05:38:10;16.10;73.80
73322;DHT22;61549;37.044;22.128;2022-12-01T05:43:58;16.20;73.70
73322;DHT22;61549;37.044;22.128;2022-12-01T05:49:45;16.30;74.00
73322;DHT22;61549;37.044;22.128;2022-12-01T05:52:11;16.20;70.50
73322;DHT22;61549;37.044;22.128;2022-12-01T05:54:37;16.00;71.50
73322;DHT22;61549;37.044;22.128;2022-12-01T05:57:03;15.70;72.20
73322;DHT22;61549;37.044;22.128;2022-12-01T05:59:28;15.90;72.10
73322;DHT22;61549;37.044;22.128;2022-12-01T06:01:54;16.00;71.90
73322;DHT22;61549;37.044;22.128;2022-12-01T06:04:20;16.20;70.80
73322;DHT22;61549;37.044;22.128;2022-12-01T06:06:46;16.20;72.40
73322;DHT22;61549;37.044;22.128;2022-12-01T06:09:12;16.20;72.70
73322;DHT22;61549;37.044;22.128;2022-12-01T06:11:38;16.30;72.00
73322;DHT22;61549;37.044;22.128;2022-12-01T06:14:04;16.40;71.20
73322;DHT22;61549;37.044;22.128;2022-12-01T06:16:30;16.40;69.30
73322;DHT22;61549;37.044;22.128;2022-12-01T06:18:55;16.40;69.30
73322;DHT22;61549;37.044;22.128;2022-12-01T06:21:21;16.50;69.30
73322;DHT22;61549;37.044;22.128;2022-12-01T06:23:47;16.50;69.70
73322;DHT22;61549;37.044;22.128;2022-12-01T06:26:13;16.50;70.00
73322;DHT22;61549;37.044;22.128;2022-12-01T06:28:39;16.50;70.00
73322;DHT22;61549;37.044;22.128;2022-12-01T06:31:04;16.50;70.30
73322;DHT22;61549;37.044;22.128;2022-12-01T06:33:31;16.50;70.30
73322;DHT22;61549;37.044;22.128;2022-12-01T06:36:01;16.50;70.20
73322;DHT22;61549;37.044;22.128;2022-12-01T06:38:35;16.50;68.90
73322;DHT22;61549;37.044;22.128;2022-12-01T06:41:02;16.10;69.80
73322;DHT22;61549;37.044;22.128;2022-12-01T06:43:28;15.70;70.90
73322;DHT22;61549;37.044;22.128;2022-12-01T06:45:54;15.40;73.00
73322;DHT22;61549;37.044;22.128;2022-12-01T06:48:20;15.50;73.60
73322;DHT22;61549;37.044;22.128;2022-12-01T06:50:46;15.60;74.10
73322;DHT22;61549;37.044;22.128;2022-12-01T06:53:12;15.80;74.00
73322;DHT22;61549;37.044;22.128;2022-12-01T06:55:37;15.90;73.40
73322;DHT22;61549;37.044;22.128;2022-12-01T06:58:04;16.00;73.00
73322;DHT22;61549;37.044;22.128;2022-12-01T07:00:30;16.10;72.00
73322;DHT22;61549;37.044;22.128;2022-12-01T07:02:56;16.30;72.50
73322;DHT22;61549;37.044;22.128;2022-12-01T07:05:21;16.50;72.30
73322;DHT22;61549;37.044;22.128;2022-12-01T07:07:47;16.60;71.60
73322;DHT22;61549;37.044;22.128;2022-12-01T07:10:13;16.70;71.20
73322;DHT22;61549;37.044;22.128;2022-12-01T07:12:39;16.70;71.30
73322;DHT22;61549;37.044;22.128;2022-12-01T07:15:06;16.70;71.40
73322;DHT22;61549;37.044;22.128;2022-12-01T07:17:33;16.70;71.40
73322;DHT22;61549;37.044;22.128;2022-12-01T07:20:00;16.80;71.60
73322;DHT22;61549;37.044;22.128;2022-12-01T07:22:27;16.80;71.60
73322;DHT22;61549;37.044;22.128;2022-12-01T07:24:53;16.70;72.00
73322;DHT22;61549;37.044;22.128;2022-12-01T07:27:19;16.70;72.50
73322;DHT22;61549;37.044;22.128;2022-12-01T07:29:46;16.70;72.80
73322;DHT22;61549;37.044;22.128;2022-12-01T07:32:11;16.70;72.80
73322;DHT22;61549;37.044;22.128;2022-12-01T07:34:37;16.80;73.00
73322;DHT22;61549;37.044;22.128;2022-12-01T07:37:03;16.80;73.10
73322;DHT22;61549;37.044;22.128;2022-12-01T07:39:29;16.90;73.20
73322;DHT22;61549;37.044;22.128;2022-12-01T07:42:01;16.90;73.30
73322;DHT22;61549;37.044;22.128;2022-12-01T07:44:27;16.90;73.50
73322;DHT22;61549;37.044;22.128;2022-12-01T07:46:53;16.90;73.70
73322;DHT22;61549;37.044;22.128;2022-12-01T07:49:19;16.90;73.80
73322;DHT22;61549;37.044;22.128;2022-12-01T07:51:45;16.90;74.20
73322;DHT22;61549;37.044;22.128;2022-12-01T07:54:11;16.90;74.20
73322;DHT22;61549;37.044;22.128;2022-12-01T07:56:41;16.80;74.20
73322;DHT22;61549;37.044;22.128;2022-12-01T07:59:07;16.90;74.30
73322;DHT22;61549;37.044;22.128;2022-12-01T08:01:33;16.90;74.20
73322;DHT22;61549;37.044;22.128;2022-12-01T08:03:59;16.90;74.40
73322;DHT22;61549;37.044;22.128;2022-12-01T08:06:26;16.90;74.30
73322;DHT22;61549;37.044;22.128;2022-12-01T08:08:52;17.00;74.20
73322;DHT22;61549;37.044;22.128;2022-12-01T08:11:20;17.00;74.50
73322;DHT22;61549;37.044;22.128;2022-12-01T08:13:47;17.00;74.70
73322;DHT22;61549;37.044;22.128;2022-12-01T08:16:15;17.00;74.70
73322;DHT22;61549;37.044;22.128;2022-12-01T08:18:42;17.00;74.70
73322;DHT22;61549;37.044;22.128;2022-12-01T08:21:11;17.00;74.70
73322;DHT22;61549;37.044;22.128;2022-12-01T08:23:37;16.90;74.70
73322;DHT22;61549;37.044;22.128;2022-12-01T08:26:06;16.90;74.50
73322;DHT22;61549;37.044;22.128;2022-12-01T08:28:35;17.00;74.60
73322;DHT22;61549;37.044;22.128;2022-12-01T08:31:15;17.00;74.80
73322;DHT22;61549;37.044;22.128;2022-12-01T08:33:41;17.10;75.00
73322;DHT22;61549;37.044;22.128;2022-12-01T08:36:10;17.00;75.40
73322;DHT22;61549;37.044;22.128;2022-12-01T08:38:36;17.10;75.60
73322;DHT22;61549;37.044;22.128;2022-12-01T08:41:05;17.10;75.80
73322;DHT22;61549;37.044;22.128;2022-12-01T08:43:31;17.10;76.00
73322;DHT22;61549;37.044;22.128;2022-12-01T08:45:59;17.10;76.30
73322;DHT22;61549;37.044;22.128;2022-12-01T08:48:25;17.10;76.40
73322;DHT22;61549;37.044;22.128;2022-12-01T08:51:07;17.20;76.60
73322;DHT22;61549;37.044;22.128;2022-12-01T08:53:34;17.20;76.70
73322;DHT22;61549;37.044;22.128;2022-12-01T08:56:03;17.30;76.80
73322;DHT22;61549;37.044;22.128;2022-12-01T08:58:29;17.30;76.80
73322;DHT22;61549;37.044;22.128;2022-12-01T09:01:03;17.50;76.80
73322;DHT22;61549;37.044;22.128;2022-12-01T09:03:30;17.50;76.60
73322;DHT22;61549;37.044;22.128;2022-12-01T09:06:04;17.60;76.80
73322;DHT22;61549;37.044;22.128;2022-12-01T09:08:31;17.80;77.40
73322;DHT22;61549;37.044;22.128;2022-12-01T09:10:59;17.90;77.00
73322;DHT22;61549;37.044;22.128;2022-12-01T09:16:28;18.70;76.20
73322;DHT22;61549;37.044;22.128;2022-12-01T09:18:54;19.20;72.30
73322;DHT22;61549;37.044;22.128;2022-12-01T09:21:31;19.50;71.40
73322;DHT22;61549;37.044;22.128;2022-12-01T09:23:57;19.60;70.60
73322;DHT22;61549;37.044;22.128;2022-12-01T09:26:23;19.60;70.60
73322;DHT22;61549;37.044;22.128;2022-12-01T09:28:53;19.60;71.70
73322;DHT22;61549;37.044;22.128;2022-12-01T09:31:19;19.50;69.80
73322;DHT22;61549;37.044;22.128;2022-12-01T09:34:12;19.50;70.30
73322;DHT22;61549;37.044;22.128;2022-12-01T09:36:57;19.40;70.90
73322;DHT22;61549;37.044;22.128;2022-12-01T09:39:23;19.30;71.20
73322;DHT22;61549;37.044;22.128;2022-12-01T09:42:04;19.30;71.80
73322;DHT22;61549;37.044;22.128;2022-12-01T09:44:48;19.20;72.10
73322;DHT22;61549;37.044;22.128;2022-12-01T09:47:30;19.20;72.30
73322;DHT22;61549;37.044;22.128;2022-12-01T09:50:06;19.10;72.50
73322;DHT22;61549;37.044;22.128;2022-12-01T09:52:41;18.90;72.50
73322;DHT22;61549;37.044;22.128;2022-12-01T09:55:12;18.80;72.10
73322;DHT22;61549;37.044;22.128;2022-12-01T09:57:40;18.80;72.00
73322;DHT22;61549;37.044;22.128;2022-12-01T10:00:16;18.70;72.20
73322;DHT22;61549;37.044;22.128;2022-12-01T10:02:50;18.70;71.90
73322;DHT22;61549;37.044;22.128;2022-12-01T10:05:22;18.60;72.00
73322;DHT22;61549;37.044;22.128;2022-12-01T10:10:29;18.50;72.20
73322;DHT22;61549;37.044;22.128;2022-12-01T10:12:56;18.40;72.30
73322;DHT22;61549;37.044;22.128;2022-12-01T10:15:38;18.40;72.30
73322;DHT22;61549;37.044;22.128;2022-12-01T10:18:29;18.30;72.40
73322;DHT22;61549;37.044;22.128;2022-12-01T10:29:15;18.60;72.60
73322;DHT22;61549;37.044;22.128;2022-12-01T10:34:27;18.70;72.40
73322;DHT22;61549;37.044;22.128;2022-12-01T10:36:59;18.60;72.80
73322;DHT22;61549;37.044;22.128;2022-12-01T10:39:46;18.50;71.10
73322;DHT22;61549;37.044;22.128;2022-12-01T10:44:52;18.00;73.70
73322;DHT22;61549;37.044;22.128;2022-12-01T10:47:25;17.90;73.60
73322;DHT22;61549;37.044;22.128;2022-12-01T10:49:52;18.10;73.80
73322;DHT22;61549;37.044;22.128;2022-12-01T10:52:39;18.40;73.90
73322;DHT22;61549;37.044;22.128;2022-12-01T10:55:28;18.80;73.70
73322;DHT22;61549;37.044;22.128;2022-12-01T10:57:56;19.30;73.20
73322;DHT22;61549;37.044;22.128;2022-12-01T11:00:25;19.80;74.20
73322;DHT22;61549;37.044;22.128;2022-12-01T11:02:51;20.20;68.30
73322;DHT22;61549;37.044;22.128;2022-12-01T11:05:28;20.40;66.40
73322;DHT22;61549;37.044;22.128;2022-12-01T11:07:57;20.60;68.80
73322;DHT22;61549;37.044;22.128;2022-12-01T11:10:32;20.50;68.70
73322;DHT22;61549;37.044;22.128;2022-12-01T11:13:06;20.50;68.10
73322;DHT22;61549;37.044;22.128;2022-12-01T11:16:09;20.40;68.90
73322;DHT22;61549;37.044;22.128;2022-12-01T11:18:38;20.30;70.00
73322;DHT22;61549;37.044;22.128;2022-12-01T11:21:08;20.00;69.40
73322;DHT22;61549;37.044;22.128;2022-12-01T11:23:36;19.80;67.10
73322;DHT22;61549;37.044;22.128;2022-12-01T11:26:22;19.70;67.50
73322;DHT22;61549;37.044;22.128;2022-12-01T11:31:45;19.50;67.90
73322;DHT22;61549;37.044;22.128;2022-12-01T11:34:31;19.40;67.60
73322;DHT22;61549;37.044;22.128;2022-12-01T11:37:07;19.20;68.10
73322;DHT22;61549;37.044;22.128;2022-12-01T11:39:39;19.00;68.10
73322;DHT22;61549;37.044;22.128;2022-12-01T11:42:26;19.00;68.20
73322;DHT22;61549;37.044;22.128;2022-12-01T11:44:59;19.10;68.50
73322;DHT22;61549;37.044;22.128;2022-12-01T11:47:28;19.20;71.70
73322;DHT22;61549;37.044;22.128;2022-12-01T11:49:59;19.30;72.20
73322;DHT22;61549;37.044;22.128;2022-12-01T11:52:32;19.20;70.90
73322;DHT22;61549;37.044;22.128;2022-12-01T11:57:38;19.10;69.00
73322;DHT22;61549;37.044;22.128;2022-12-01T12:00:22;19.10;69.30
73322;DHT22;61549;37.044;22.128;2022-12-01T12:03:14;19.10;68.30
73322;DHT22;61549;37.044;22.128;2022-12-01T12:06:20;19.10;69.00
73322;DHT22;61549;37.044;22.128;2022-12-01T12:09:10;19.00;69.20
73322;DHT22;61549;37.044;22.128;2022-12-01T12:12:03;18.90;68.60
73322;DHT22;61549;37.044;22.128;2022-12-01T12:18:04;19.00;68.30
73322;DHT22;61549;37.044;22.128;2022-12-01T12:26:28;19.20;68.70
73322;DHT22;61549;37.044;22.128;2022-12-01T12:34:54;19.70;68.10
73322;DHT22;61549;37.044;22.128;2022-12-01T12:37:58;19.80;68.80
73322;DHT22;61549;37.044;22.128;2022-12-01T12:40:45;19.80;67.00
73322;DHT22;61549;37.044;22.128;2022-12-01T12:46:15;19.70;65.90
73322;DHT22;61549;37.044;22.128;2022-12-01T12:56:37;19.20;63.60
73322;DHT22;61549;37.044;22.128;2022-12-01T13:00:31;19.10;63.20
73322;DHT22;61549;37.044;22.128;2022-12-01T13:15:53;18.90;63.80
73322;DHT22;61549;37.044;22.128;2022-12-01T13:20:46;18.80;63.30
73322;DHT22;61549;37.044;22.128;2022-12-01T13:23:15;18.70;64.30
73322;DHT22;61549;37.044;22.128;2022-12-01T13:25:43;18.80;64.70
73322;DHT22;61549;37.044;22.128;2022-12-01T13:28:20;18.80;65.10
73322;DHT22;61549;37.044;22.128;2022-12-01T13:31:16;18.90;65.90
73322;DHT22;61549;37.044;22.128;2022-12-01T13:33:52;18.90;65.70
73322;DHT22;61549;37.044;22.128;2022-12-01T13:36:18;19.00;65.90
73322;DHT22;61549;37.044;22.128;2022-12-01T13:38:55;19.10;65.50
73322;DHT22;61549;37.044;22.128;2022-12-01T13:41:37;19.10;65.70
73322;DHT22;61549;37.044;22.128;2022-12-01T13:44:20;18.80;63.60
73322;DHT22;61549;37.044;22.128;2022-12-01T13:49:38;18.40;64.50
73322;DHT22;61549;37.044;22.128;2022-12-01T13:58:21;18.30;66.30
73322;DHT22;61549;37.044;22.128;2022-12-01T14:00:29;18.10;67.90
73322;DHT22;61549;37.044;22.128;2022-12-01T14:06:04;18.00;70.20
73322;DHT22;61549;37.044;22.128;2022-12-01T14:08:51;18.20;70.40
73322;DHT22;61549;37.044;22.128;2022-12-01T14:11:26;18.60;71.50
73322;DHT22;61549;37.044;22.128;2022-12-01T14:14:17;18.80;72.30
73322;DHT22;61549;37.044;22.128;2022-12-01T14:16:52;18.90;72.40
73322;DHT22;61549;37.044;22.128;2022-12-01T14:19:44;18.90;72.20
73322;DHT22;61549;37.044;22.128;2022-12-01T14:22:41;18.90;72.20
73322;DHT22;61549;37.044;22.128;2022-12-01T14:27:56;18.90;71.90
73322;DHT22;61549;37.044;22.128;2022-12-01T14:41:45;18.70;73.50
73322;DHT22;61549;37.044;22.128;2022-12-01T14:44:34;18.70;73.90
73322;DHT22;61549;37.044;22.128;2022-12-01T14:52:34;18.60;74.00
73322;DHT22;61549;37.044;22.128;2022-12-01T14:55:19;18.60;74.20
73322;DHT22;61549;37.044;22.128;2022-12-01T14:57:51;18.50;74.40
73322;DHT22;61549;37.044;22.128;2022-12-01T15:03:20;18.50;74.40
73322;DHT22;61549;37.044;22.128;2022-12-01T15:05:48;18.60;74.40
73322;DHT22;61549;37.044;22.128;2022-12-01T15:08:22;18.50;74.50
73322;DHT22;61549;37.044;22.128;2022-12-01T15:10:54;18.50;74.70
73322;DHT22;61549;37.044;22.128;2022-12-01T15:15:59;18.50;74.70
73322;DHT22;61549;37.044;22.128;2022-12-01T15:18:35;18.40;75.00
73322;DHT22;61549;37.044;22.128;2022-12-01T15:23:50;18.40;75.20
73322;DHT22;61549;37.044;22.128;2022-12-01T15:26:21;18.30;75.20
73322;DHT22;61549;37.044;22.128;2022-12-01T15:28:48;18.30;75.10
73322;DHT22;61549;37.044;22.128;2022-12-01T15:31:15;18.30;75.00
73322;DHT22;61549;37.044;22.128;2022-12-01T15:33:47;18.30;75.00
73322;DHT22;61549;37.044;22.128;2022-12-01T15:36:15;18.30;75.20
73322;DHT22;61549;37.044;22.128;2022-12-01T15:38:41;18.20;75.50
73322;DHT22;61549;37.044;22.128;2022-12-01T15:41:18;18.30;75.50
73322;DHT22;61549;37.044;22.128;2022-12-01T15:43:54;18.30;75.40
73322;DHT22;61549;37.044;22.128;2022-12-01T15:46:29;18.30;75.30
73322;DHT22;61549;37.044;22.128;2022-12-01T15:49:13;18.30;75.50
73322;DHT22;61549;37.044;22.128;2022-12-01T15:51:40;18.20;75.40
73322;DHT22;61549;37.044;22.128;2022-12-01T15:54:22;18.20;75.90
73322;DHT22;61549;37.044;22.128;2022-12-01T15:56:56;18.20;76.10
73322;DHT22;61549;37.044;22.128;2022-12-01T15:59:38;18.30;76.30
73322;DHT22;61549;37.044;22.128;2022-12-01T16:02:14;18.20;76.20
73322;DHT22;61549;37.044;22.128;2022-12-01T16:04:46;18.20;76.40
73322;DHT22;61549;37.044;22.128;2022-12-01T16:07:13;18.20;76.60
73322;DHT22;61549;37.044;22.128;2022-12-01T16:10:02;18.20;76.60
73322;DHT22;61549;37.044;22.128;2022-12-01T16:12:31;18.20;76.90
73322;DHT22;61549;37.044;22.128;2022-12-01T16:17:50;18.30;76.90
73322;DHT22;61549;37.044;22.128;2022-12-01T16:22:55;18.20;76.90
73322;DHT22;61549;37.044;22.128;2022-12-01T16:25:38;18.30;76.60
73322;DHT22;61549;37.044;22.128;2022-12-01T16:28:06;18.30;76.40
73322;DHT22;61549;37.044;22.128;2022-12-01T16:30:38;18.30;76.70
73322;DHT22;61549;37.044;22.128;2022-12-01T16:33:15;18.30;76.80
73322;DHT22;61549;37.044;22.128;2022-12-01T16:35:42;18.30;76.90
73322;DHT22;61549;37.044;22.128;2022-12-01T16:38:19;18.30;76.90
73322;DHT22;61549;37.044;22.128;2022-12-01T16:40:54;18.40;76.90
73322;DHT22;61549;37.044;22.128;2022-12-01T16:43:23;18.40;76.90
73322;DHT22;61549;37.044;22.128;2022-12-01T16:45:50;18.30;76.90
73322;DHT22;61549;37.044;22.128;2022-12-01T16:48:28;18.30;76.70
73322;DHT22;61549;37.044;22.128;2022-12-01T16:50:54;18.40;76.80
73322;DHT22;61549;37.044;22.128;2022-12-01T16:53:21;18.40;76.80
73322;DHT22;61549;37.044;22.128;2022-12-01T16:56:08;18.40;76.80
73322;DHT22;61549;37.044;22.128;2022-12-01T16:58:37;18.40;76.80
73322;DHT22;61549;37.044;22.128;2022-12-01T17:01:07;18.30;76.80
73322;DHT22;61549;37.044;22.128;2022-12-01T17:03:36;18.40;76.70
73322;DHT22;61549;37.044;22.128;2022-12-01T17:06:03;18.30;76.80
73322;DHT22;61549;37.044;22.128;2022-12-01T17:08:29;18.30;76.70
73322;DHT22;61549;37.044;22.128;2022-12-01T17:10:55;18.30;76.80
73322;DHT22;61549;37.044;22.128;2022-12-01T17:13:21;18.30;76.70
73322;DHT22;61549;37.044;22.128;2022-12-01T17:15:50;18.20;76.90
73322;DHT22;61549;37.044;22.128;2022-12-01T17:18:18;18.30;77.00
73322;DHT22;61549;37.044;22.128;2022-12-01T17:20:44;18.30;77.00
73322;DHT22;61549;37.044;22.128;2022-12-01T17:23:10;18.30;76.90
73322;DHT22;61549;37.044;22.128;2022-12-01T17:25:40;18.30;77.00
73322;DHT22;61549;37.044;22.128;2022-12-01T17:28:06;18.30;76.90
73322;DHT22;61549;37.044;22.128;2022-12-01T17:30:32;18.30;77.10
73322;DHT22;61549;37.044;22.128;2022-12-01T17:32:59;18.30;77.10
73322;DHT22;61549;37.044;22.128;2022-12-01T17:35:25;18.30;77.10
73322;DHT22;61549;37.044;22.128;2022-12-01T17:37:51;18.30;77.10
73322;DHT22;61549;37.044;22.128;2022-12-01T17:40:17;18.30;76.90
73322;DHT22;61549;37.044;22.128;2022-12-01T17:42:43;18.30;76.80
73322;DHT22;61549;37.044;22.128;2022-12-01T17:45:10;18.20;76.70
73322;DHT22;61549;37.044;22.128;2022-12-01T17:47:36;18.20;76.80
73322;DHT22;61549;37.044;22.128;2022-12-01T17:50:02;18.20;76.90
73322;DHT22;61549;37.044;22.128;2022-12-01T17:52:28;18.20;77.00
73322;DHT22;61549;37.044;22.128;2022-12-01T17:54:54;18.20;77.10
73322;DHT22;61549;37.044;22.128;2022-12-01T17:57:22;18.10;77.10
73322;DHT22;61549;37.044;22.128;2022-12-01T17:59:47;18.10;77.00
73322;DHT22;61549;37.044;22.128;2022-12-01T18:02:13;18.00;76.90
73322;DHT22;61549;37.044;22.128;2022-12-01T18:04:39;18.00;76.70
73322;DHT22;61549;37.044;22.128;2022-12-01T18:07:06;18.00;76.60
73322;DHT22;61549;37.044;22.128;2022-12-01T18:09:32;18.10;76.50
73322;DHT22;61549;37.044;22.128;2022-12-01T18:11:58;18.20;76.50
73322;DHT22;61549;37.044;22.128;2022-12-01T18:14:24;18.20;76.40
73322;DHT22;61549;37.044;22.128;2022-12-01T18:16:51;18.30;76.50
73322;DHT22;61549;37.044;22.128;2022-12-01T18:19:18;18.30;76.70
73322;DHT22;61549;37.044;22.128;2022-12-01T18:21:44;18.30;76.70
73322;DHT22;61549;37.044;22.128;2022-12-01T18:24:10;18.30;76.90
73322;DHT22;61549;37.044;22.128;2022-12-01T18:26:39;18.30;77.00
73322;DHT22;61549;37.044;22.128;2022-12-01T18:29:14;18.30;77.10
73322;DHT22;61549;37.044;22.128;2022-12-01T18:31:41;18.30;77.10
73322;DHT22;61549;37.044;22.128;2022-12-01T18:34:09;18.20;77.40
73322;DHT22;61549;37.044;22.128;2022-12-01T18:36:38;18.20;77.40
73322;DHT22;61549;37.044;22.128;2022-12-01T18:39:06;18.30;77.50
73322;DHT22;61549;37.044;22.128;2022-12-01T18:41:33;18.20;77.50
73322;DHT22;61549;37.044;22.128;2022-12-01T18:43:59;18.20;77.60
73322;DHT22;61549;37.044;22.128;2022-12-01T18:46:25;18.20;77.50
73322;DHT22;61549;37.044;22.128;2022-12-01T18:48:54;18.20;77.50
73322;DHT22;61549;37.044;22.128;2022-12-01T18:51:32;18.20;77.50
73322;DHT22;61549;37.044;22.128;2022-12-01T18:54:00;18.30;77.60
73322;DHT22;61549;37.044;22.128;2022-12-01T18:56:26;18.20;77.60
73322;DHT22;61549;37.044;22.128;2022-12-01T18:58:57;18.20;77.50
73322;DHT22;61549;37.044;22.128;2022-12-01T19:01:31;18.20;77.30
73322;DHT22;61549;37.044;22.128;2022-12-01T19:03:58;18.20;77.30
73322;DHT22;61549;37.044;22.128;2022-12-01T19:06:24;18.20;77.20
73322;DHT22;61549;37.044;22.128;2022-12-01T19:08:51;18.20;77.10
73322;DHT22;61549;37.044;22.128;2022-12-01T19:11:17;18.20;76.90
73322;DHT22;61549;37.044;22.128;2022-12-01T19:13:43;18.20;76.90
73322;DHT22;61549;37.044;22.128;2022-12-01T19:16:13;18.20;76.90
73322;DHT22;61549;37.044;22.128;2022-12-01T19:18:39;18.20;76.90
73322;DHT22;61549;37.044;22.128;2022-12-01T19:21:07;18.20;77.00
73322;DHT22;61549;37.044;22.128;2022-12-01T19:23:33;18.20;77.00
73322;DHT22;61549;37.044;22.128;2022-12-01T19:26:09;18.20;76.90
73322;DHT22;61549;37.044;22.128;2022-12-01T19:28:35;18.20;76.90
73322;DHT22;61549;37.044;22.128;2022-12-01T19:31:11;18.10;76.90
73322;DHT22;61549;37.044;22.128;2022-12-01T19:33:37;18.10;76.90
73322;DHT22;61549;37.044;22.128;2022-12-01T19:36:17;18.10;76.90
73322;DHT22;61549;37.044;22.128;2022-12-01T19:38:43;18.10;76.80
73322;DHT22;61549;37.044;22.128;2022-12-01T19:41:10;18.10;76.70
73322;DHT22;61549;37.044;22.128;2022-12-01T19:43:37;18.10;76.50
73322;DHT22;61549;37.044;22.128;2022-12-01T19:46:10;18.10;76.40
73322;DHT22;61549;37.044;22.128;2022-12-01T19:48:37;18.10;76.30
73322;DHT22;61549;37.044;22.128;2022-12-01T19:51:05;18.10;76.40
73322;DHT22;61549;37.044;22.128;2022-12-01T19:53:32;18.10;76.50
73322;DHT22;61549;37.044;22.128;2022-12-01T19:56:02;18.10;76.60
73322;DHT22;61549;37.044;22.128;2022-12-01T19:58:28;18.10;76.40
73322;DHT22;61549;37.044;22.128;2022-12-01T20:00:54;18.00;76.40
73322;DHT22;61549;37.044;22.128;2022-12-01T20:03:20;18.10;76.40
73322;DHT22;61549;37.044;22.128;2022-12-01T20:05:46;18.00;76.40
73322;DHT22;61549;37.044;22.128;2022-12-01T20:08:12;18.10;76.40
73322;DHT22;61549;37.044;22.128;2022-12-01T20:10:47;18.00;76.50
73322;DHT22;61549;37.044;22.128;2022-12-01T20:13:13;18.00;76.30
73322;DHT22;61549;37.044;22.128;2022-12-01T20:15:39;18.00;76.50
73322;DHT22;61549;37.044;22.128;2022-12-01T20:18:05;18.00;76.40
73322;DHT22;61549;37.044;22.128;2022-12-01T20:20:31;18.00;76.30
73322;DHT22;61549;37.044;22.128;2022-12-01T20:22:57;18.00;76.30
73322;DHT22;61549;37.044;22.128;2022-12-01T20:25:23;18.00;76.50
73322;DHT22;61549;37.044;22.128;2022-12-01T20:27:49;18.00;76.50
73322;DHT22;61549;37.044;22.128;2022-12-01T20:30:15;18.00;76.60
73322;DHT22;61549;37.044;22.128;2022-12-01T20:32:41;17.90;76.70
73322;DHT22;61549;37.044;22.128;2022-12-01T20:35:09;17.90;76.70
73322;DHT22;61549;37.044;22.128;2022-12-01T20:37:34;17.90;76.90
73322;DHT22;61549;37.044;22.128;2022-12-01T20:40:00;17.90;76.90
73322;DHT22;61549;37.044;22.128;2022-12-01T20:42:26;17.90;76.80